sensor_id;sensor_type;location;lat;lon;timestamp;P1;durP1;ratioP1;P2;durP2;ratioP2
62994;SDS011;49086;52.300;4.850;2022-07-23T00:01:20;7.75;;;3.10;;
62994;SDS011;49086;52.300;4.850;2022-07-23T00:03:46;8.23;;;3.22;;
62994;SDS011;49086;52.300;4.850;2022-07-23T00:06:12;5.25;;;2.70;;
62994;SDS011;49086;52.300;4.850;2022-07-23T00:08:39;5.90;;;2.92;;
62994;SDS011;49086;52.300;4.850;2022-07-23T00:11:04;5.45;;;2.75;;
62994;SDS011;49086;52.300;4.850;2022-07-23T00:13:30;6.28;;;3.10;;
62994;SDS011;49086;52.300;4.850;2022-07-23T00:15:55;7.60;;;3.03;;
62994;SDS011;49086;52.300;4.850;2022-07-23T00:18:21;3.72;;;2.60;;
62994;SDS011;49086;52.300;4.850;2022-07-23T00:20:48;5.13;;;2.88;;
62994;SDS011;49086;52.300;4.850;2022-07-23T00:23:14;5.88;;;2.95;;
62994;SDS011;49086;52.300;4.850;2022-07-23T00:25:40;5.90;;;2.60;;
62994;SDS011;49086;52.300;4.850;2022-07-23T00:28:05;7.85;;;2.95;;
62994;SDS011;49086;52.300;4.850;2022-07-23T00:30:32;4.80;;;3.08;;
62994;SDS011;49086;52.300;4.850;2022-07-23T00:33:00;5.15;;;2.63;;
62994;SDS011;49086;52.300;4.850;2022-07-23T00:35:29;5.65;;;2.35;;
62994;SDS011;49086;52.300;4.850;2022-07-23T00:37:56;5.90;;;2.63;;
62994;SDS011;49086;52.300;4.850;2022-07-23T00:40:24;4.32;;;2.72;;
62994;SDS011;49086;52.300;4.850;2022-07-23T00:42:51;8.52;;;2.80;;
62994;SDS011;49086;52.300;4.850;2022-07-23T00:45:16;5.47;;;2.70;;
62994;SDS011;49086;52.300;4.850;2022-07-23T00:47:42;3.83;;;2.38;;
62994;SDS011;49086;52.300;4.850;2022-07-23T00:50:08;7.57;;;2.78;;
62994;SDS011;49086;52.300;4.850;2022-07-23T00:52:34;4.88;;;2.65;;
62994;SDS011;49086;52.300;4.850;2022-07-23T00:55:02;4.68;;;2.67;;
62994;SDS011;49086;52.300;4.850;2022-07-23T00:57:28;6.55;;;2.75;;
62994;SDS011;49086;52.300;4.850;2022-07-23T00:59:55;5.45;;;3.17;;
62994;SDS011;49086;52.300;4.850;2022-07-23T01:02:21;7.10;;;2.60;;
62994;SDS011;49086;52.300;4.850;2022-07-23T01:04:47;6.25;;;2.95;;
62994;SDS011;49086;52.300;4.850;2022-07-23T01:07:13;4.70;;;3.10;;
62994;SDS011;49086;52.300;4.850;2022-07-23T01:09:39;4.95;;;2.72;;
62994;SDS011;49086;52.300;4.850;2022-07-23T01:12:06;5.70;;;3.10;;
62994;SDS011;49086;52.300;4.850;2022-07-23T01:14:32;5.55;;;2.83;;
62994;SDS011;49086;52.300;4.850;2022-07-23T01:16:58;8.35;;;2.90;;
62994;SDS011;49086;52.300;4.850;2022-07-23T01:19:27;4.45;;;2.47;;
62994;SDS011;49086;52.300;4.850;2022-07-23T01:21:53;6.45;;;3.75;;
62994;SDS011;49086;52.300;4.850;2022-07-23T01:24:23;5.93;;;3.22;;
62994;SDS011;49086;52.300;4.850;2022-07-23T01:26:49;4.43;;;2.90;;
62994;SDS011;49086;52.300;4.850;2022-07-23T01:29:15;6.78;;;2.88;;
62994;SDS011;49086;52.300;4.850;2022-07-23T01:31:41;5.40;;;3.13;;
62994;SDS011;49086;52.300;4.850;2022-07-23T01:34:08;8.43;;;3.20;;
62994;SDS011;49086;52.300;4.850;2022-07-23T01:36:35;5.10;;;3.10;;
62994;SDS011;49086;52.300;4.850;2022-07-23T01:39:02;7.05;;;3.15;;
62994;SDS011;49086;52.300;4.850;2022-07-23T01:41:31;6.75;;;3.15;;
62994;SDS011;49086;52.300;4.850;2022-07-23T01:44:00;10.05;;;3.45;;
62994;SDS011;49086;52.300;4.850;2022-07-23T01:46:25;6.78;;;3.47;;
62994;SDS011;49086;52.300;4.850;2022-07-23T01:48:52;8.23;;;3.30;;
62994;SDS011;49086;52.300;4.850;2022-07-23T01:51:26;6.22;;;3.65;;
62994;SDS011;49086;52.300;4.850;2022-07-23T01:53:52;6.63;;;3.60;;
62994;SDS011;49086;52.300;4.850;2022-07-23T01:56:18;6.20;;;3.13;;
62994;SDS011;49086;52.300;4.850;2022-07-23T01:58:47;7.05;;;4.03;;
62994;SDS011;49086;52.300;4.850;2022-07-23T02:01:14;7.20;;;3.30;;
62994;SDS011;49086;52.300;4.850;2022-07-23T02:03:40;7.53;;;3.40;;
62994;SDS011;49086;52.300;4.850;2022-07-23T02:06:06;6.97;;;3.67;;
62994;SDS011;49086;52.300;4.850;2022-07-23T02:08:32;10.75;;;3.80;;
62994;SDS011;49086;52.300;4.850;2022-07-23T02:10:59;6.07;;;3.22;;
62994;SDS011;49086;52.300;4.850;2022-07-23T02:13:24;6.15;;;3.22;;
62994;SDS011;49086;52.300;4.850;2022-07-23T02:15:50;6.50;;;3.78;;
62994;SDS011;49086;52.300;4.850;2022-07-23T02:18:17;5.40;;;3.10;;
62994;SDS011;49086;52.300;4.850;2022-07-23T02:20:42;7.40;;;3.10;;
62994;SDS011;49086;52.300;4.850;2022-07-23T02:23:09;6.35;;;3.42;;
62994;SDS011;49086;52.300;4.850;2022-07-23T02:25:36;5.82;;;3.28;;
62994;SDS011;49086;52.300;4.850;2022-07-23T02:28:02;7.60;;;3.78;;
62994;SDS011;49086;52.300;4.850;2022-07-23T02:30:28;6.85;;;3.53;;
62994;SDS011;49086;52.300;4.850;2022-07-23T02:32:54;7.13;;;3.55;;
62994;SDS011;49086;52.300;4.850;2022-07-23T02:35:19;5.97;;;3.30;;
62994;SDS011;49086;52.300;4.850;2022-07-23T02:37:45;6.57;;;3.53;;
62994;SDS011;49086;52.300;4.850;2022-07-23T02:40:11;7.35;;;2.92;;
62994;SDS011;49086;52.300;4.850;2022-07-23T02:42:37;5.22;;;3.20;;
62994;SDS011;49086;52.300;4.850;2022-07-23T02:45:04;6.40;;;3.47;;
62994;SDS011;49086;52.300;4.850;2022-07-23T02:47:30;9.93;;;3.67;;
62994;SDS011;49086;52.300;4.850;2022-07-23T02:49:56;5.25;;;3.45;;
62994;SDS011;49086;52.300;4.850;2022-07-23T02:52:23;8.65;;;3.33;;
62994;SDS011;49086;52.300;4.850;2022-07-23T02:54:48;7.03;;;3.40;;
62994;SDS011;49086;52.300;4.850;2022-07-23T02:57:14;7.65;;;2.92;;
62994;SDS011;49086;52.300;4.850;2022-07-23T02:59:39;5.35;;;3.03;;
62994;SDS011;49086;52.300;4.850;2022-07-23T03:02:06;7.35;;;3.22;;
62994;SDS011;49086;52.300;4.850;2022-07-23T03:04:31;9.43;;;3.08;;
62994;SDS011;49086;52.300;4.850;2022-07-23T03:06:59;5.10;;;3.20;;
62994;SDS011;49086;52.300;4.850;2022-07-23T03:09:25;10.63;;;4.38;;
62994;SDS011;49086;52.300;4.850;2022-07-23T03:11:51;7.15;;;3.03;;
62994;SDS011;49086;52.300;4.850;2022-07-23T03:14:16;8.38;;;3.10;;
62994;SDS011;49086;52.300;4.850;2022-07-23T03:16:42;6.28;;;2.80;;
62994;SDS011;49086;52.300;4.850;2022-07-23T03:19:07;4.95;;;3.15;;
62994;SDS011;49086;52.300;4.850;2022-07-23T03:21:33;7.90;;;3.25;;
62994;SDS011;49086;52.300;4.850;2022-07-23T03:24:00;5.45;;;3.08;;
62994;SDS011;49086;52.300;4.850;2022-07-23T03:26:26;9.18;;;3.10;;
62994;SDS011;49086;52.300;4.850;2022-07-23T03:28:51;8.25;;;3.10;;
62994;SDS011;49086;52.300;4.850;2022-07-23T03:31:18;7.18;;;3.30;;
62994;SDS011;49086;52.300;4.850;2022-07-23T03:33:43;5.32;;;2.80;;
62994;SDS011;49086;52.300;4.850;2022-07-23T03:36:09;5.63;;;3.00;;
62994;SDS011;49086;52.300;4.850;2022-07-23T03:38:36;6.85;;;3.10;;
62994;SDS011;49086;52.300;4.850;2022-07-23T03:41:01;4.30;;;2.75;;
62994;SDS011;49086;52.300;4.850;2022-07-23T03:43:28;4.95;;;2.95;;
62994;SDS011;49086;52.300;4.850;2022-07-23T03:45:54;6.45;;;3.05;;
62994;SDS011;49086;52.300;4.850;2022-07-23T03:48:20;7.43;;;2.95;;
62994;SDS011;49086;52.300;4.850;2022-07-23T03:50:45;6.20;;;3.10;;
62994;SDS011;49086;52.300;4.850;2022-07-23T03:53:12;5.40;;;3.20;;
62994;SDS011;49086;52.300;4.850;2022-07-23T03:55:40;6.72;;;3.05;;
62994;SDS011;49086;52.300;4.850;2022-07-23T03:58:06;5.22;;;2.95;;
62994;SDS011;49086;52.300;4.850;2022-07-23T04:00:31;7.70;;;2.90;;
62994;SDS011;49086;52.300;4.850;2022-07-23T04:02:58;7.75;;;2.95;;
62994;SDS011;49086;52.300;4.850;2022-07-23T04:05:23;7.28;;;3.40;;
62994;SDS011;49086;52.300;4.850;2022-07-23T04:07:49;4.40;;;2.75;;
62994;SDS011;49086;52.300;4.850;2022-07-23T04:10:16;4.57;;;2.88;;
62994;SDS011;49086;52.300;4.850;2022-07-23T04:12:42;9.02;;;3.35;;
62994;SDS011;49086;52.300;4.850;2022-07-23T04:15:09;5.15;;;3.10;;
62994;SDS011;49086;52.300;4.850;2022-07-23T04:17:35;6.07;;;3.00;;
62994;SDS011;49086;52.300;4.850;2022-07-23T04:20:01;11.32;;;3.20;;
62994;SDS011;49086;52.300;4.850;2022-07-23T04:22:29;7.65;;;3.08;;
62994;SDS011;49086;52.300;4.850;2022-07-23T04:24:55;5.07;;;3.10;;
62994;SDS011;49086;52.300;4.850;2022-07-23T04:27:20;5.10;;;3.05;;
62994;SDS011;49086;52.300;4.850;2022-07-23T04:29:46;4.95;;;3.10;;
62994;SDS011;49086;52.300;4.850;2022-07-23T04:32:13;4.15;;;2.90;;
62994;SDS011;49086;52.300;4.850;2022-07-23T04:34:39;6.18;;;2.70;;
62994;SDS011;49086;52.300;4.850;2022-07-23T04:37:05;5.93;;;2.70;;
62994;SDS011;49086;52.300;4.850;2022-07-23T04:39:31;6.13;;;3.05;;
62994;SDS011;49086;52.300;4.850;2022-07-23T04:41:56;5.40;;;2.67;;
62994;SDS011;49086;52.300;4.850;2022-07-23T04:44:25;4.90;;;2.40;;
62994;SDS011;49086;52.300;4.850;2022-07-23T04:46:50;7.22;;;2.63;;
62994;SDS011;49086;52.300;4.850;2022-07-23T04:49:15;3.80;;;2.55;;
62994;SDS011;49086;52.300;4.850;2022-07-23T04:51:42;6.75;;;2.70;;
62994;SDS011;49086;52.300;4.850;2022-07-23T04:54:08;3.97;;;2.50;;
62994;SDS011;49086;52.300;4.850;2022-07-23T04:56:35;6.47;;;2.42;;
62994;SDS011;49086;52.300;4.850;2022-07-23T04:59:01;7.70;;;2.72;;
62994;SDS011;49086;52.300;4.850;2022-07-23T05:01:27;6.60;;;3.03;;
62994;SDS011;49086;52.300;4.850;2022-07-23T05:03:53;6.70;;;2.50;;
62994;SDS011;49086;52.300;4.850;2022-07-23T05:06:18;4.95;;;2.47;;
62994;SDS011;49086;52.300;4.850;2022-07-23T05:08:43;5.47;;;2.30;;
62994;SDS011;49086;52.300;4.850;2022-07-23T05:11:09;5.30;;;2.40;;
62994;SDS011;49086;52.300;4.850;2022-07-23T05:13:34;5.85;;;2.40;;
62994;SDS011;49086;52.300;4.850;2022-07-23T05:16:00;6.25;;;2.50;;
62994;SDS011;49086;52.300;4.850;2022-07-23T05:18:29;5.13;;;2.30;;
62994;SDS011;49086;52.300;4.850;2022-07-23T05:20:54;7.03;;;2.38;;
62994;SDS011;49086;52.300;4.850;2022-07-23T05:23:19;4.65;;;2.40;;
62994;SDS011;49086;52.300;4.850;2022-07-23T05:25:45;6.30;;;2.13;;
62994;SDS011;49086;52.300;4.850;2022-07-23T05:28:12;5.18;;;2.20;;
62994;SDS011;49086;52.300;4.850;2022-07-23T05:30:39;5.55;;;2.13;;
62994;SDS011;49086;52.300;4.850;2022-07-23T05:33:06;3.10;;;1.98;;
62994;SDS011;49086;52.300;4.850;2022-07-23T05:35:32;4.38;;;2.22;;
62994;SDS011;49086;52.300;4.850;2022-07-23T05:37:57;4.50;;;2.20;;
62994;SDS011;49086;52.300;4.850;2022-07-23T05:40:24;7.88;;;2.28;;
62994;SDS011;49086;52.300;4.850;2022-07-23T05:42:50;3.80;;;2.00;;
62994;SDS011;49086;52.300;4.850;2022-07-23T05:45:16;5.75;;;2.00;;
62994;SDS011;49086;52.300;4.850;2022-07-23T05:47:47;4.35;;;2.13;;
62994;SDS011;49086;52.300;4.850;2022-07-23T05:50:15;6.45;;;1.90;;
62994;SDS011;49086;52.300;4.850;2022-07-23T05:52:51;9.00;;;2.30;;
62994;SDS011;49086;52.300;4.850;2022-07-23T05:55:16;6.28;;;1.73;;
62994;SDS011;49086;52.300;4.850;2022-07-23T05:57:43;3.90;;;1.90;;
62994;SDS011;49086;52.300;4.850;2022-07-23T06:00:08;9.38;;;2.00;;
62994;SDS011;49086;52.300;4.850;2022-07-23T06:02:37;6.05;;;1.73;;
62994;SDS011;49086;52.300;4.850;2022-07-23T06:05:03;3.25;;;1.98;;
62994;SDS011;49086;52.300;4.850;2022-07-23T06:07:29;4.07;;;1.65;;
62994;SDS011;49086;52.300;4.850;2022-07-23T06:09:57;7.07;;;1.65;;
62994;SDS011;49086;52.300;4.850;2022-07-23T06:12:24;4.05;;;1.80;;
62994;SDS011;49086;52.300;4.850;2022-07-23T06:14:50;6.63;;;1.77;;
62994;SDS011;49086;52.300;4.850;2022-07-23T06:17:21;3.17;;;1.60;;
62994;SDS011;49086;52.300;4.850;2022-07-23T06:19:46;4.15;;;1.75;;
62994;SDS011;49086;52.300;4.850;2022-07-23T06:22:14;2.50;;;1.50;;
62994;SDS011;49086;52.300;4.850;2022-07-23T06:24:39;3.38;;;1.30;;
62994;SDS011;49086;52.300;4.850;2022-07-23T06:27:04;2.95;;;1.48;;
62994;SDS011;49086;52.300;4.850;2022-07-23T06:29:30;3.40;;;1.70;;
62994;SDS011;49086;52.300;4.850;2022-07-23T06:31:55;4.13;;;1.70;;
62994;SDS011;49086;52.300;4.850;2022-07-23T06:34:24;6.43;;;1.60;;
62994;SDS011;49086;52.300;4.850;2022-07-23T06:36:51;3.13;;;1.30;;
62994;SDS011;49086;52.300;4.850;2022-07-23T06:39:17;2.50;;;1.38;;
62994;SDS011;49086;52.300;4.850;2022-07-23T06:41:42;2.42;;;1.42;;
62994;SDS011;49086;52.300;4.850;2022-07-23T06:44:08;3.47;;;1.80;;
62994;SDS011;49086;52.300;4.850;2022-07-23T06:46:33;2.90;;;1.40;;
62994;SDS011;49086;52.300;4.850;2022-07-23T06:48:59;3.42;;;1.27;;
62994;SDS011;49086;52.300;4.850;2022-07-23T06:51:24;4.45;;;1.30;;
62994;SDS011;49086;52.300;4.850;2022-07-23T06:53:50;2.80;;;1.30;;
62994;SDS011;49086;52.300;4.850;2022-07-23T06:56:15;5.15;;;1.67;;
62994;SDS011;49086;52.300;4.850;2022-07-23T06:58:41;5.68;;;1.50;;
62994;SDS011;49086;52.300;4.850;2022-07-23T07:01:06;4.70;;;1.98;;
62994;SDS011;49086;52.300;4.850;2022-07-23T07:03:32;3.30;;;1.40;;
62994;SDS011;49086;52.300;4.850;2022-07-23T07:05:59;5.43;;;1.50;;
62994;SDS011;49086;52.300;4.850;2022-07-23T07:08:26;3.90;;;1.67;;
62994;SDS011;49086;52.300;4.850;2022-07-23T07:10:53;6.63;;;1.70;;
62994;SDS011;49086;52.300;4.850;2022-07-23T07:13:29;5.18;;;1.95;;
62994;SDS011;49086;52.300;4.850;2022-07-23T07:15:55;3.75;;;1.50;;
62994;SDS011;49086;52.300;4.850;2022-07-23T07:18:20;4.13;;;1.58;;
62994;SDS011;49086;52.300;4.850;2022-07-23T07:20:47;4.13;;;1.42;;
62994;SDS011;49086;52.300;4.850;2022-07-23T07:23:14;4.97;;;1.55;;
62994;SDS011;49086;52.300;4.850;2022-07-23T07:25:40;4.93;;;2.00;;
62994;SDS011;49086;52.300;4.850;2022-07-23T07:28:07;6.53;;;1.67;;
62994;SDS011;49086;52.300;4.850;2022-07-23T07:30:33;4.13;;;1.63;;
62994;SDS011;49086;52.300;4.850;2022-07-23T07:32:59;4.65;;;1.40;;
62994;SDS011;49086;52.300;4.850;2022-07-23T07:35:24;5.13;;;1.50;;
62994;SDS011;49086;52.300;4.850;2022-07-23T07:37:51;4.38;;;1.60;;
62994;SDS011;49086;52.300;4.850;2022-07-23T07:40:23;3.35;;;1.60;;
62994;SDS011;49086;52.300;4.850;2022-07-23T07:42:51;4.05;;;1.40;;
62994;SDS011;49086;52.300;4.850;2022-07-23T07:45:19;3.30;;;1.38;;
62994;SDS011;49086;52.300;4.850;2022-07-23T07:47:48;2.90;;;1.30;;
62994;SDS011;49086;52.300;4.850;2022-07-23T07:50:14;4.10;;;1.25;;
62994;SDS011;49086;52.300;4.850;2022-07-23T07:52:41;3.55;;;1.48;;
62994;SDS011;49086;52.300;4.850;2022-07-23T07:55:07;3.53;;;1.45;;
62994;SDS011;49086;52.300;4.850;2022-07-23T07:57:35;3.38;;;1.48;;
62994;SDS011;49086;52.300;4.850;2022-07-23T08:00:07;3.53;;;1.52;;
62994;SDS011;49086;52.300;4.850;2022-07-23T08:02:42;4.70;;;1.35;;
62994;SDS011;49086;52.300;4.850;2022-07-23T08:05:13;3.20;;;1.25;;
62994;SDS011;49086;52.300;4.850;2022-07-23T08:07:40;4.15;;;1.50;;
62994;SDS011;49086;52.300;4.850;2022-07-23T08:10:06;3.97;;;1.50;;
62994;SDS011;49086;52.300;4.850;2022-07-23T08:12:45;2.55;;;1.23;;
62994;SDS011;49086;52.300;4.850;2022-07-23T08:15:16;3.47;;;1.40;;
62994;SDS011;49086;52.300;4.850;2022-07-23T08:17:43;2.15;;;1.33;;
62994;SDS011;49086;52.300;4.850;2022-07-23T08:20:13;6.18;;;1.50;;
62994;SDS011;49086;52.300;4.850;2022-07-23T08:22:47;2.88;;;1.30;;
62994;SDS011;49086;52.300;4.850;2022-07-23T08:25:19;3.67;;;1.58;;
62994;SDS011;49086;52.300;4.850;2022-07-23T08:27:49;2.90;;;1.30;;
62994;SDS011;49086;52.300;4.850;2022-07-23T08:30:16;3.88;;;1.50;;
62994;SDS011;49086;52.300;4.850;2022-07-23T08:33:02;4.05;;;1.58;;
62994;SDS011;49086;52.300;4.850;2022-07-23T08:35:35;3.28;;;1.40;;
62994;SDS011;49086;52.300;4.850;2022-07-23T08:38:02;2.17;;;1.27;;
62994;SDS011;49086;52.300;4.850;2022-07-23T08:40:30;2.78;;;1.10;;
62994;SDS011;49086;52.300;4.850;2022-07-23T08:42:57;3.83;;;1.58;;
62994;SDS011;49086;52.300;4.850;2022-07-23T08:45:25;5.55;;;1.70;;
62994;SDS011;49086;52.300;4.850;2022-07-23T08:47:53;5.55;;;1.40;;
62994;SDS011;49086;52.300;4.850;2022-07-23T08:50:21;2.78;;;1.33;;
62994;SDS011;49086;52.300;4.850;2022-07-23T08:52:48;5.88;;;1.52;;
62994;SDS011;49086;52.300;4.850;2022-07-23T08:55:19;4.05;;;1.50;;
62994;SDS011;49086;52.300;4.850;2022-07-23T08:57:50;4.03;;;1.55;;
62994;SDS011;49086;52.300;4.850;2022-07-23T09:00:18;3.88;;;1.48;;
62994;SDS011;49086;52.300;4.850;2022-07-23T09:02:45;7.50;;;1.70;;
62994;SDS011;49086;52.300;4.850;2022-07-23T09:05:13;2.92;;;1.40;;
62994;SDS011;49086;52.300;4.850;2022-07-23T09:10:42;3.45;;;1.27;;
62994;SDS011;49086;52.300;4.850;2022-07-23T09:13:24;3.88;;;1.30;;
62994;SDS011;49086;52.300;4.850;2022-07-23T09:16:11;2.72;;;1.33;;
62994;SDS011;49086;52.300;4.850;2022-07-23T09:21:27;4.10;;;1.25;;
62994;SDS011;49086;52.300;4.850;2022-07-23T09:24:10;7.22;;;1.60;;
62994;SDS011;49086;52.300;4.850;2022-07-23T09:26:40;4.20;;;1.38;;
62994;SDS011;49086;52.300;4.850;2022-07-23T09:29:18;2.78;;;1.30;;
62994;SDS011;49086;52.300;4.850;2022-07-23T09:31:53;4.10;;;1.30;;
62994;SDS011;49086;52.300;4.850;2022-07-23T09:34:30;4.55;;;1.58;;
62994;SDS011;49086;52.300;4.850;2022-07-23T09:37:11;2.70;;;1.40;;
62994;SDS011;49086;52.300;4.850;2022-07-23T09:39:41;3.45;;;1.20;;
62994;SDS011;49086;52.300;4.850;2022-07-23T09:42:15;3.13;;;1.30;;
62994;SDS011;49086;52.300;4.850;2022-07-23T09:44:46;3.15;;;1.70;;
62994;SDS011;49086;52.300;4.850;2022-07-23T09:47:13;4.05;;;1.48;;
62994;SDS011;49086;52.300;4.850;2022-07-23T09:49:39;5.38;;;1.42;;
62994;SDS011;49086;52.300;4.850;2022-07-23T09:52:07;3.42;;;1.45;;
62994;SDS011;49086;52.300;4.850;2022-07-23T09:54:37;7.85;;;2.50;;
62994;SDS011;49086;52.300;4.850;2022-07-23T09:57:05;21.65;;;4.85;;
62994;SDS011;49086;52.300;4.850;2022-07-23T09:59:51;4.55;;;1.98;;
62994;SDS011;49086;52.300;4.850;2022-07-23T10:02:17;5.72;;;2.42;;
62994;SDS011;49086;52.300;4.850;2022-07-23T10:04:46;7.38;;;1.60;;
62994;SDS011;49086;52.300;4.850;2022-07-23T10:07:13;4.63;;;1.30;;
62994;SDS011;49086;52.300;4.850;2022-07-23T10:09:43;3.30;;;1.50;;
62994;SDS011;49086;52.300;4.850;2022-07-23T10:12:13;3.03;;;1.38;;
62994;SDS011;49086;52.300;4.850;2022-07-23T10:15:19;3.45;;;1.30;;
62994;SDS011;49086;52.300;4.850;2022-07-23T10:17:44;3.10;;;1.50;;
62994;SDS011;49086;52.300;4.850;2022-07-23T10:20:09;3.10;;;1.40;;
62994;SDS011;49086;52.300;4.850;2022-07-23T10:22:42;5.32;;;1.67;;
62994;SDS011;49086;52.300;4.850;2022-07-23T10:28:20;3.22;;;1.80;;
62994;SDS011;49086;52.300;4.850;2022-07-23T10:33:58;3.50;;;1.40;;
62994;SDS011;49086;52.300;4.850;2022-07-23T10:36:51;2.85;;;1.38;;
62994;SDS011;49086;52.300;4.850;2022-07-23T10:39:22;5.20;;;1.83;;
62994;SDS011;49086;52.300;4.850;2022-07-23T10:42:11;3.25;;;1.20;;
62994;SDS011;49086;52.300;4.850;2022-07-23T10:44:40;3.92;;;1.70;;
62994;SDS011;49086;52.300;4.850;2022-07-23T10:47:08;3.92;;;1.40;;
62994;SDS011;49086;52.300;4.850;2022-07-23T10:49:53;6.20;;;2.08;;
62994;SDS011;49086;52.300;4.850;2022-07-23T10:52:25;3.30;;;1.40;;
62994;SDS011;49086;52.300;4.850;2022-07-23T10:57:26;4.78;;;1.70;;
62994;SDS011;49086;52.300;4.850;2022-07-23T11:02:51;3.80;;;1.60;;
62994;SDS011;49086;52.300;4.850;2022-07-23T11:05:20;3.22;;;1.67;;
62994;SDS011;49086;52.300;4.850;2022-07-23T11:08:10;3.40;;;1.80;;
62994;SDS011;49086;52.300;4.850;2022-07-23T11:11:16;3.80;;;1.70;;
62994;SDS011;49086;52.300;4.850;2022-07-23T11:13:45;3.63;;;1.42;;
62994;SDS011;49086;52.300;4.850;2022-07-23T11:16:21;3.45;;;1.67;;
62994;SDS011;49086;52.300;4.850;2022-07-23T11:21:41;5.70;;;2.50;;
62994;SDS011;49086;52.300;4.850;2022-07-23T11:24:11;5.05;;;2.08;;
62994;SDS011;49086;52.300;4.850;2022-07-23T11:26:56;4.95;;;1.98;;
62994;SDS011;49086;52.300;4.850;2022-07-23T11:32:18;5.15;;;2.10;;
62994;SDS011;49086;52.300;4.850;2022-07-23T11:34:52;5.25;;;2.22;;
62994;SDS011;49086;52.300;4.850;2022-07-23T11:37:40;3.63;;;1.90;;
62994;SDS011;49086;52.300;4.850;2022-07-23T11:40:11;5.15;;;2.10;;
62994;SDS011;49086;52.300;4.850;2022-07-23T11:45:40;3.10;;;1.90;;
62994;SDS011;49086;52.300;4.850;2022-07-23T11:48:45;4.85;;;2.00;;
62994;SDS011;49086;52.300;4.850;2022-07-23T11:51:25;3.20;;;1.73;;
62994;SDS011;49086;52.300;4.850;2022-07-23T11:54:04;3.45;;;1.88;;
62994;SDS011;49086;52.300;4.850;2022-07-23T11:56:31;3.55;;;1.92;;
62994;SDS011;49086;52.300;4.850;2022-07-23T11:58:57;5.13;;;2.10;;
62994;SDS011;49086;52.300;4.850;2022-07-23T12:01:25;5.90;;;2.10;;
62994;SDS011;49086;52.300;4.850;2022-07-23T12:03:50;3.75;;;2.22;;
62994;SDS011;49086;52.300;4.850;2022-07-23T12:06:16;3.78;;;2.70;;
62994;SDS011;49086;52.300;4.850;2022-07-23T12:08:43;5.10;;;2.30;;
62994;SDS011;49086;52.300;4.850;2022-07-23T12:11:11;3.97;;;2.40;;
62994;SDS011;49086;52.300;4.850;2022-07-23T12:13:38;4.40;;;2.53;;
62994;SDS011;49086;52.300;4.850;2022-07-23T12:16:04;5.57;;;2.83;;
62994;SDS011;49086;52.300;4.850;2022-07-23T12:18:41;4.00;;;2.90;;
62994;SDS011;49086;52.300;4.850;2022-07-23T12:21:07;4.53;;;2.35;;
62994;SDS011;49086;52.300;4.850;2022-07-23T12:24:05;4.20;;;2.30;;
62994;SDS011;49086;52.300;4.850;2022-07-23T12:26:33;4.22;;;2.00;;
62994;SDS011;49086;52.300;4.850;2022-07-23T12:29:18;5.50;;;2.33;;
62994;SDS011;49086;52.300;4.850;2022-07-23T12:31:44;4.90;;;2.63;;
62994;SDS011;49086;52.300;4.850;2022-07-23T12:34:13;4.93;;;2.88;;
62994;SDS011;49086;52.300;4.850;2022-07-23T12:36:44;5.50;;;2.53;;
62994;SDS011;49086;52.300;4.850;2022-07-23T12:39:28;4.78;;;2.47;;
62994;SDS011;49086;52.300;4.850;2022-07-23T12:41:56;5.60;;;2.30;;
62994;SDS011;49086;52.300;4.850;2022-07-23T12:44:23;5.07;;;2.80;;
62994;SDS011;49086;52.300;4.850;2022-07-23T12:46:53;4.95;;;2.35;;
62994;SDS011;49086;52.300;4.850;2022-07-23T12:49:25;4.05;;;2.58;;
62994;SDS011;49086;52.300;4.850;2022-07-23T12:51:54;5.78;;;3.03;;
62994;SDS011;49086;52.300;4.850;2022-07-23T12:54:26;4.57;;;2.50;;
62994;SDS011;49086;52.300;4.850;2022-07-23T12:57:44;6.03;;;2.63;;
62994;SDS011;49086;52.300;4.850;2022-07-23T13:00:48;5.05;;;2.38;;
62994;SDS011;49086;52.300;4.850;2022-07-23T13:03:38;5.25;;;2.70;;
62994;SDS011;49086;52.300;4.850;2022-07-23T13:06:25;4.53;;;2.75;;
62994;SDS011;49086;52.300;4.850;2022-07-23T13:08:53;5.85;;;2.65;;
62994;SDS011;49086;52.300;4.850;2022-07-23T13:11:25;5.63;;;2.53;;
62994;SDS011;49086;52.300;4.850;2022-07-23T13:14:14;4.97;;;2.53;;
62994;SDS011;49086;52.300;4.850;2022-07-23T13:16:40;5.47;;;2.70;;
62994;SDS011;49086;52.300;4.850;2022-07-23T13:19:08;4.35;;;2.50;;
62994;SDS011;49086;52.300;4.850;2022-07-23T13:21:41;4.30;;;2.40;;
62994;SDS011;49086;52.300;4.850;2022-07-23T13:24:33;4.43;;;2.70;;
62994;SDS011;49086;52.300;4.850;2022-07-23T13:27:23;3.83;;;2.50;;
62994;SDS011;49086;52.300;4.850;2022-07-23T13:29:48;4.95;;;2.40;;
62994;SDS011;49086;52.300;4.850;2022-07-23T13:32:14;4.07;;;2.17;;
62994;SDS011;49086;52.300;4.850;2022-07-23T13:34:41;4.18;;;2.05;;
62994;SDS011;49086;52.300;4.850;2022-07-23T13:37:18;6.72;;;2.40;;
62994;SDS011;49086;52.300;4.850;2022-07-23T13:39:44;3.50;;;1.80;;
62994;SDS011;49086;52.300;4.850;2022-07-23T13:42:31;3.70;;;1.80;;
62994;SDS011;49086;52.300;4.850;2022-07-23T13:44:57;4.38;;;1.70;;
62994;SDS011;49086;52.300;4.850;2022-07-23T13:47:24;2.50;;;1.50;;
62994;SDS011;49086;52.300;4.850;2022-07-23T13:49:54;4.75;;;1.73;;
62994;SDS011;49086;52.300;4.850;2022-07-23T13:52:46;3.60;;;1.80;;
62994;SDS011;49086;52.300;4.850;2022-07-23T13:55:20;3.20;;;2.03;;
62994;SDS011;49086;52.300;4.850;2022-07-23T13:57:46;3.58;;;1.80;;
62994;SDS011;49086;52.300;4.850;2022-07-23T14:00:23;3.85;;;1.90;;
62994;SDS011;49086;52.300;4.850;2022-07-23T14:02:54;5.85;;;1.80;;
62994;SDS011;49086;52.300;4.850;2022-07-23T14:05:39;3.80;;;1.73;;
62994;SDS011;49086;52.300;4.850;2022-07-23T14:08:08;4.55;;;1.90;;
62994;SDS011;49086;52.300;4.850;2022-07-23T14:10:44;3.40;;;1.48;;
62994;SDS011;49086;52.300;4.850;2022-07-23T14:13:11;3.05;;;1.80;;
62994;SDS011;49086;52.300;4.850;2022-07-23T14:15:36;3.83;;;1.80;;
62994;SDS011;49086;52.300;4.850;2022-07-23T14:18:07;4.35;;;2.38;;
62994;SDS011;49086;52.300;4.850;2022-07-23T14:20:33;3.55;;;2.00;;
62994;SDS011;49086;52.300;4.850;2022-07-23T14:23:20;3.10;;;1.83;;
62994;SDS011;49086;52.300;4.850;2022-07-23T14:25:48;6.88;;;2.03;;
62994;SDS011;49086;52.300;4.850;2022-07-23T14:28:14;3.05;;;1.90;;
62994;SDS011;49086;52.300;4.850;2022-07-23T14:30:40;3.05;;;1.83;;
62994;SDS011;49086;52.300;4.850;2022-07-23T14:33:09;4.13;;;2.05;;
62994;SDS011;49086;52.300;4.850;2022-07-23T14:35:38;4.03;;;1.73;;
62994;SDS011;49086;52.300;4.850;2022-07-23T14:38:24;4.82;;;2.55;;
62994;SDS011;49086;52.300;4.850;2022-07-23T14:40:50;3.55;;;2.33;;
62994;SDS011;49086;52.300;4.850;2022-07-23T14:43:22;3.38;;;1.77;;
62994;SDS011;49086;52.300;4.850;2022-07-23T14:45:50;6.40;;;2.10;;
62994;SDS011;49086;52.300;4.850;2022-07-23T14:48:15;3.60;;;2.55;;
62994;SDS011;49086;52.300;4.850;2022-07-23T14:50:44;5.38;;;2.95;;
62994;SDS011;49086;52.300;4.850;2022-07-23T14:53:16;5.43;;;3.20;;
62994;SDS011;49086;52.300;4.850;2022-07-23T14:55:48;6.30;;;2.40;;
62994;SDS011;49086;52.300;4.850;2022-07-23T14:58:18;3.60;;;2.20;;
62994;SDS011;49086;52.300;4.850;2022-07-23T15:00:47;4.20;;;2.28;;
62994;SDS011;49086;52.300;4.850;2022-07-23T15:03:13;5.45;;;2.30;;
62994;SDS011;49086;52.300;4.850;2022-07-23T15:05:40;5.85;;;2.15;;
62994;SDS011;49086;52.300;4.850;2022-07-23T15:08:05;4.55;;;1.95;;
62994;SDS011;49086;52.300;4.850;2022-07-23T15:10:48;3.58;;;1.98;;
62994;SDS011;49086;52.300;4.850;2022-07-23T15:13:18;4.57;;;2.40;;
62994;SDS011;49086;52.300;4.850;2022-07-23T15:15:47;5.38;;;2.47;;
62994;SDS011;49086;52.300;4.850;2022-07-23T15:18:17;5.38;;;2.50;;
62994;SDS011;49086;52.300;4.850;2022-07-23T15:20:44;4.88;;;2.47;;
62994;SDS011;49086;52.300;4.850;2022-07-23T15:23:18;6.05;;;2.80;;
62994;SDS011;49086;52.300;4.850;2022-07-23T15:26:07;5.15;;;2.60;;
62994;SDS011;49086;52.300;4.850;2022-07-23T15:28:46;6.32;;;3.58;;